Time;durP1;ratioP1;P1;durP2;ratioP2;P2;SDS_P1;SDS_P2;PMS_P1;PMS_P2;Temp;Humidity;BMP_temperature;BMP_pressure;BME280_temperature;BME280_humidity;BME280_pressure;Samples;Min_cycle;Max_cycle;Signal;HPM_P1;HPM_P2
2021/05/18 00:00:06;;;;;;;;;3.00;1.25;;;;;;;;5053308;28;10203;-78
2021/05/18 00:02:33;;;;;;;;;3.00;3.00;;;;;;;;5057852;28;10332;-77
2021/05/18 00:05:00;;;;;;;;;2.00;1.50;;;;;;;;5035036;28;10975;-78
2021/05/18 00:07:27;;;;;;;;;7.50;2.00;;;;;;;;5059428;28;10287;-78
2021/05/18 00:12:40;;;;;;;;;3.25;3.00;;;;;;;;5040131;28;10524;-78
2021/05/18 00:15:11;;;;;;;;;3.75;3.75;;;;;;;;5058930;28;10763;-81
2021/05/18 00:17:37;;;;;;;;;2.50;2.50;;;;;;;;5059292;28;10546;-78
2021/05/18 00:20:06;;;;;;;;;4.75;3.00;;;;;;;;5053530;28;10698;-81
2021/05/18 00:22:33;;;;;;;;;3.00;2.25;;;;;;;;5042966;28;10685;-79
2021/05/18 00:25:00;;;;;;;;;3.00;3.00;;;;;;;;5058789;28;10690;-78
2021/05/18 00:27:29;;;;;;;;;3.00;3.00;;;;;;;;5061190;28;10549;-78
2021/05/18 00:29:56;;;;;;;;;2.00;2.00;;;;;;;;5050022;28;11316;-84
2021/05/18 00:32:23;;;;;;;;;2.75;2.75;;;;;;;;5050462;28;10352;-80
2021/05/18 00:34:53;;;;;;;;;5.50;2.00;;;;;;;;5058774;28;10480;-78
2021/05/18 00:37:21;;;;;;;;;2.00;2.00;;;;;;;;5060268;28;10459;-80
2021/05/18 00:39:48;;;;;;;;;2.00;2.00;;;;;;;;5058082;28;10620;-79
2021/05/18 00:42:18;;;;;;;;;1.00;1.00;;;;;;;;5057663;28;10423;-84
2021/05/18 00:44:45;;;;;;;;;2.00;2.00;;;;;;;;5055675;28;10373;-78
2021/05/18 00:47:12;;;;;;;;;1.00;1.00;;;;;;;;5065343;28;10425;-79
2021/05/18 00:49:39;;;;;;;;;2.00;2.00;;;;;;;;5048248;28;10293;-81
2021/05/18 00:52:06;;;;;;;;;3.00;3.00;;;;;;;;5053017;28;10179;-84
2021/05/18 00:54:39;;;;;;;;;1.25;1.00;;;;;;;;5055290;28;11081;-80
2021/05/18 00:59:54;;;;;;;;;3.00;3.00;;;;;;;;5042492;28;10078;-78
2021/05/18 01:02:22;;;;;;;;;1.25;1.25;;;;;;;;5054520;28;10391;-78
2021/05/18 01:04:55;;;;;;;;;2.00;1.00;;;;;;;;5054183;28;11010;-80
2021/05/18 01:07:22;;;;;;;;;1.00;1.00;;;;;;;;5064848;28;10305;-79
2021/05/18 01:09:49;;;;;;;;;1.75;1.75;;;;;;;;5053490;28;10092;-78
2021/05/18 01:12:16;;;;;;;;;2.00;2.00;;;;;;;;5057045;28;10162;-82
2021/05/18 01:14:42;;;;;;;;;2.00;2.00;;;;;;;;5055481;28;10245;-78
2021/05/18 01:17:11;;;;;;;;;3.00;1.50;;;;;;;;5051845;28;10249;-80
2021/05/18 01:19:37;;;;;;;;;3.00;2.50;;;;;;;;5049324;28;10352;-78
2021/05/18 01:22:05;;;;;;;;;7.50;3.25;;;;;;;;5038064;28;11136;-78
2021/05/18 01:24:34;;;;;;;;;0.00;0.00;;;;;;;;5059597;28;10743;-80
2021/05/18 01:27:01;;;;;;;;;2.00;2.00;;;;;;;;5055688;28;10388;-78
2021/05/18 01:29:29;;;;;;;;;4.25;2.75;;;;;;;;5062738;28;10518;-78
2021/05/18 01:31:57;;;;;;;;;3.25;3.00;;;;;;;;5051770;28;10412;-78
2021/05/18 01:34:24;;;;;;;;;5.00;2.00;;;;;;;;5040246;28;10443;-79
2021/05/18 01:36:51;;;;;;;;;1.00;1.00;;;;;;;;5056932;28;10390;-78
2021/05/18 01:39:46;;;;;;;;;3.00;2.00;;;;;;;;5052545;28;10398;-78
2021/05/18 01:44:58;;;;;;;;;3.50;2.00;;;;;;;;5059101;28;10393;-78
2021/05/18 01:47:25;;;;;;;;;2.25;2.25;;;;;;;;5032164;28;11263;-78
2021/05/18 01:49:53;;;;;;;;;3.00;2.50;;;;;;;;5061787;28;10429;-81
2021/05/18 01:52:20;;;;;;;;;3.50;3.50;;;;;;;;5035908;28;10436;-78
2021/05/18 01:54:50;;;;;;;;;2.00;2.00;;;;;;;;5060527;28;10436;-81
2021/05/18 01:57:19;;;;;;;;;1.50;1.50;;;;;;;;5057170;28;10247;-78
2021/05/18 01:59:47;;;;;;;;;1.00;1.00;;;;;;;;5061611;28;11217;-79
2021/05/18 02:02:14;;;;;;;;;2.25;1.00;;;;;;;;5041260;28;10270;-78
2021/05/18 02:04:44;;;;;;;;;2.00;2.00;;;;;;;;5057996;28;10979;-78
2021/05/18 02:07:13;;;;;;;;;4.50;1.50;;;;;;;;5059647;28;10259;-81
2021/05/18 02:09:41;;;;;;;;;1.25;1.00;;;;;;;;5052446;28;10391;-79
2021/05/18 02:12:09;;;;;;;;;4.00;3.00;;;;;;;;5066593;28;10187;-80
2021/05/18 02:14:37;;;;;;;;;6.25;2.00;;;;;;;;5062618;28;10914;-78
2021/05/18 02:17:14;;;;;;;;;3.25;1.25;;;;;;;;5053747;28;10950;-80
2021/05/18 02:19:53;;;;;;;;;2.00;2.00;;;;;;;;5056406;28;10780;-81
2021/05/18 02:25:05;;;;;;;;;1.75;1.50;;;;;;;;5057208;28;10032;-81
2021/05/18 02:27:32;;;;;;;;;1.25;1.25;;;;;;;;5054322;28;10105;-78
2021/05/18 02:30:00;;;;;;;;;2.00;2.00;;;;;;;;5063211;28;10099;-79
2021/05/18 02:32:28;;;;;;;;;2.00;2.00;;;;;;;;5052342;28;9883;-77
2021/05/18 02:34:55;;;;;;;;;2.50;2.50;;;;;;;;5059604;28;10594;-78
2021/05/18 02:37:22;;;;;;;;;0.00;0.00;;;;;;;;5054077;28;10031;-79
2021/05/18 02:39:49;;;;;;;;;4.00;3.00;;;;;;;;5064381;28;10100;-78
2021/05/18 02:42:16;;;;;;;;;3.75;1.00;;;;;;;;5054489;28;10090;-83
2021/05/18 02:44:47;;;;;;;;;2.50;1.00;;;;;;;;5067189;28;10047;-78
2021/05/18 02:49:59;;;;;;;;;1.00;1.00;;;;;;;;5059901;28;9833;-78
2021/05/18 02:52:26;;;;;;;;;2.25;2.25;;;;;;;;5047740;28;10020;-78
2021/05/18 02:54:56;;;;;;;;;2.00;2.00;;;;;;;;5053631;28;9938;-80
2021/05/18 02:57:32;;;;;;;;;2.25;2.00;;;;;;;;5036757;28;9975;-80
2021/05/18 03:00:01;;;;;;;;;0.50;0.00;;;;;;;;5043227;28;10010;-78
2021/05/18 03:02:28;;;;;;;;;3.00;1.00;;;;;;;;5055109;28;9747;-78
2021/05/18 03:04:55;;;;;;;;;1.75;1.75;;;;;;;;5044005;28;9941;-78
2021/05/18 03:07:22;;;;;;;;;2.00;2.00;;;;;;;;5050312;28;10698;-77
2021/05/18 03:09:49;;;;;;;;;1.00;1.00;;;;;;;;5057225;28;9850;-78
2021/05/18 03:12:16;;;;;;;;;4.00;2.00;;;;;;;;5059034;28;10698;-78
2021/05/18 03:14:43;;;;;;;;;1.00;1.00;;;;;;;;5035763;28;9944;-77
2021/05/18 03:17:11;;;;;;;;;2.00;2.00;;;;;;;;5062144;28;10048;-78
2021/05/18 03:19:38;;;;;;;;;6.25;2.25;;;;;;;;5052922;28;9947;-78
2021/05/18 03:22:05;;;;;;;;;3.75;1.75;;;;;;;;5058019;28;9970;-77
2021/05/18 03:24:32;;;;;;;;;3.00;3.00;;;;;;;;5055871;28;10107;-78
2021/05/18 03:26:59;;;;;;;;;3.00;1.00;;;;;;;;5060978;28;10057;-78
2021/05/18 03:29:29;;;;;;;;;1.00;1.00;;;;;;;;5059764;28;9973;-77
2021/05/18 03:34:42;;;;;;;;;1.00;1.00;;;;;;;;5063116;28;9744;-79
2021/05/18 03:37:14;;;;;;;;;3.25;1.25;;;;;;;;5036838;28;9791;-79
2021/05/18 03:39:43;;;;;;;;;1.25;1.25;;;;;;;;5061164;28;10615;-79
2021/05/18 03:42:12;;;;;;;;;1.25;1.25;;;;;;;;5056765;28;9941;-78
2021/05/18 03:44:55;;;;;;;;;1.50;1.00;;;;;;;;5056526;28;9718;-78
2021/05/18 03:53:02;;;;;;;;;1.75;1.75;;;;;;;;5005102;28;9754;-78
2021/05/18 04:04:06;;;;;;;;;3.00;1.00;;;;;;;;5016452;28;9939;-81
2021/05/18 04:12:11;;;;;;;;;2.00;2.00;;;;;;;;5008663;28;9850;-80
2021/05/18 04:17:23;;;;;;;;;1.75;1.75;;;;;;;;5018774;28;9935;-78
2021/05/18 04:19:56;;;;;;;;;4.00;0.75;;;;;;;;5015337;28;10154;-80
2021/05/18 04:39:09;;;;;;;;;2.00;2.00;;;;;;;;5010811;28;9897;-72
2021/05/18 04:50:02;;;;;;;;;2.00;2.00;;;;;;;;5046138;28;9941;-76
2021/05/18 04:52:32;;;;;;;;;3.00;1.25;;;;;;;;5043815;28;9947;-73
2021/05/18 05:00:44;;;;;;;;;0.00;0.00;;;;;;;;5053527;28;9864;-73
2021/05/18 05:06:22;;;;;;;;;2.50;1.00;;;;;;;;5014219;28;9884;-73
2021/05/18 05:08:54;;;;;;;;;0.75;0.75;;;;;;;;5044249;28;10053;-74
2021/05/18 05:14:23;;;;;;;;;1.50;1.50;;;;;;;;5018540;28;10044;-72
2021/05/18 05:16:51;;;;;;;;;3.00;3.00;;;;;;;;5039367;28;11022;-74
2021/05/18 05:19:20;;;;;;;;;2.00;1.00;;;;;;;;5043858;28;10163;-75
2021/05/18 05:21:47;;;;;;;;;3.00;3.00;;;;;;;;5044026;28;10284;-75
2021/05/18 05:24:14;;;;;;;;;0.75;0.75;;;;;;;;5049033;28;10123;-74
2021/05/18 05:26:42;;;;;;;;;1.00;1.00;;;;;;;;5030545;28;10312;-71
2021/05/18 05:29:10;;;;;;;;;1.75;1.75;;;;;;;;5043778;28;10134;-78
2021/05/18 05:31:38;;;;;;;;;1.50;1.50;;;;;;;;5030921;28;10973;-73
2021/05/18 05:34:05;;;;;;;;;2.00;2.00;;;;;;;;5042906;28;10280;-74
2021/05/18 05:36:32;;;;;;;;;1.50;1.50;;;;;;;;5043568;28;10206;-74
2021/05/18 05:39:03;;;;;;;;;2.00;2.00;;;;;;;;5042743;28;10165;-75
2021/05/18 05:41:30;;;;;;;;;4.00;4.00;;;;;;;;5045022;28;10161;-72
2021/05/18 05:43:59;;;;;;;;;3.00;3.00;;;;;;;;5041681;28;10239;-72
2021/05/18 05:46:26;;;;;;;;;2.75;2.75;;;;;;;;5047038;28;10294;-73
2021/05/18 05:48:53;;;;;;;;;4.00;2.00;;;;;;;;5043120;28;10120;-73
2021/05/18 05:51:24;;;;;;;;;3.50;2.00;;;;;;;;5063350;28;10334;-73
2021/05/18 05:53:52;;;;;;;;;6.00;3.25;;;;;;;;5064734;28;10120;-74
2021/05/18 05:56:19;;;;;;;;;6.00;6.00;;;;;;;;5063069;28;10246;-72
2021/05/18 05:58:47;;;;;;;;;7.50;4.00;;;;;;;;5057041;28;10255;-72
2021/05/18 06:01:15;;;;;;;;;3.00;3.00;;;;;;;;5057880;28;10771;-72
2021/05/18 06:03:43;;;;;;;;;2.50;2.50;;;;;;;;5047104;28;10326;-73
2021/05/18 06:06:10;;;;;;;;;10.00;5.00;;;;;;;;5063352;28;9899;-73
2021/05/18 06:08:38;;;;;;;;;3.00;3.00;;;;;;;;5063295;28;10946;-74
2021/05/18 06:11:10;;;;;;;;;4.50;4.50;;;;;;;;5064152;28;10031;-72
2021/05/18 06:13:58;;;;;;;;;6.00;3.00;;;;;;;;5053783;28;10014;-72
2021/05/18 06:41:29;;;;;;;;;5.00;5.00;;;;;;;;5063778;28;9881;-73
2021/05/18 06:46:52;;;;;;;;;3.50;2.25;;;;;;;;5063449;28;9684;-72
2021/05/18 06:49:20;;;;;;;;;3.00;3.00;;;;;;;;5061813;28;9970;-72
2021/05/18 06:51:47;;;;;;;;;3.75;3.75;;;;;;;;5062352;28;9782;-70
2021/05/18 06:54:15;;;;;;;;;4.00;4.00;;;;;;;;5063572;28;9709;-71
2021/05/18 06:56:45;;;;;;;;;5.75;4.50;;;;;;;;5043809;28;9824;-72
2021/05/18 07:01:59;;;;;;;;;2.00;2.00;;;;;;;;5053752;28;10783;-72
2021/05/18 07:04:28;;;;;;;;;3.00;3.00;;;;;;;;5058503;28;9549;-74
2021/05/18 07:07:03;;;;;;;;;1.00;1.00;;;;;;;;5051071;28;9541;-73
2021/05/18 07:09:30;;;;;;;;;3.00;3.00;;;;;;;;5055179;28;10106;-75
2021/05/18 07:11:57;;;;;;;;;3.75;3.75;;;;;;;;5062568;28;9642;-74
2021/05/18 07:14:24;;;;;;;;;2.00;2.00;;;;;;;;5056958;28;10304;-72
2021/05/18 07:16:51;;;;;;;;;3.00;3.00;;;;;;;;5044164;28;9550;-74
2021/05/18 07:19:19;;;;;;;;;5.00;3.00;;;;;;;;5059474;28;10265;-75
2021/05/18 07:21:47;;;;;;;;;4.00;4.00;;;;;;;;5060529;28;9337;-72
2021/05/18 07:24:20;;;;;;;;;4.00;4.00;;;;;;;;5059263;28;9356;-72
2021/05/18 07:26:49;;;;;;;;;4.00;3.00;;;;;;;;5058898;28;9268;-72
2021/05/18 07:29:17;;;;;;;;;3.00;3.00;;;;;;;;5057919;28;9297;-73
2021/05/18 07:31:44;;;;;;;;;4.00;4.00;;;;;;;;5059637;28;8990;-75
2021/05/18 07:34:11;;;;;;;;;3.00;3.00;;;;;;;;5060396;28;9874;-73
2021/05/18 07:36:38;;;;;;;;;2.50;2.50;;;;;;;;5054835;28;8958;-73
2021/05/18 07:39:07;;;;;;;;;4.00;3.00;;;;;;;;5061316;28;8872;-73
2021/05/18 07:41:34;;;;;;;;;3.00;3.00;;;;;;;;5060246;28;8869;-75
2021/05/18 07:44:01;;;;;;;;;3.25;3.25;;;;;;;;5059528;28;9693;-72
2021/05/18 07:46:28;;;;;;;;;5.33;4.00;;;;;;;;5062845;28;8864;-74
2021/05/18 08:00:05;;;;;;;;;2.00;2.00;;;;;;;;5050961;28;8907;-72
2021/05/18 08:05:19;;;;;;;;;2.33;2.33;;;;;;;;5050655;28;8980;-71
2021/05/18 08:07:46;;;;;;;;;2.33;2.33;;;;;;;;5054248;28;9011;-72
2021/05/18 08:10:17;;;;;;;;;2.00;2.00;;;;;;;;5055499;28;9164;-74
2021/05/18 08:12:45;;;;;;;;;5.00;3.33;;;;;;;;5041811;28;9058;-73
2021/05/18 08:15:31;;;;;;;;;4.00;3.25;;;;;;;;5054105;28;9111;-71
2021/05/18 08:18:08;;;;;;;;;3.00;3.00;;;;;;;;5061463;28;9649;-71
2021/05/18 08:20:49;;;;;;;;;3.50;3.00;;;;;;;;5065426;28;8970;-75
2021/05/18 10:35:58;;;;;;;;;9.67;9.67;;;;;;;;5061270;28;8833;-73
2021/05/18 10:38:27;;;;;;;;;5.50;5.50;;;;;;;;5060363;28;9401;-75
2021/05/18 10:41:10;;;;;;;;;96.50;94.25;;;;;;;;5062928;28;10582;-75
2021/05/18 10:43:38;;;;;;;;;86.25;81.00;;;;;;;;5059566;28;11595;-73
2021/05/18 10:46:12;;;;;;;;;18.00;18.00;;;;;;;;5059196;28;11565;-73
2021/05/18 10:49:06;;;;;;;;;1.50;1.00;;;;;;;;5063579;28;8960;-74
2021/05/18 10:51:40;;;;;;;;;3.00;2.00;;;;;;;;5058231;28;8933;-72
2021/05/18 10:54:13;;;;;;;;;4.00;1.00;;;;;;;;5060980;28;8902;-72
2021/05/18 10:57:10;;;;;;;;;2.25;2.25;;;;;;;;5059424;28;8927;-73
2021/05/18 10:59:39;;;;;;;;;1.00;1.00;;;;;;;;5060892;28;8894;-72
2021/05/18 11:02:09;;;;;;;;;1.50;1.50;;;;;;;;5080690;28;8790;-73
2021/05/18 11:04:37;;;;;;;;;2.25;1.75;;;;;;;;5056343;28;8983;-73
2021/05/18 11:07:05;;;;;;;;;2.00;2.00;;;;;;;;5060190;28;8880;-72
2021/05/18 11:09:33;;;;;;;;;1.75;1.75;;;;;;;;5061113;28;8864;-75
2021/05/18 11:12:03;;;;;;;;;2.75;2.00;;;;;;;;5064062;28;8892;-74
2021/05/18 11:14:50;;;;;;;;;2.75;2.75;;;;;;;;5061928;28;8945;-73
2021/05/18 11:17:20;;;;;;;;;2.75;2.75;;;;;;;;5050126;28;8958;-72
2021/05/18 11:20:07;;;;;;;;;3.75;3.00;;;;;;;;5061195;28;8872;-72
2021/05/18 11:25:31;;;;;;;;;1.00;1.00;;;;;;;;5057228;28;9242;-72
2021/05/18 11:28:13;;;;;;;;;1.00;1.00;;;;;;;;5056958;28;8844;-73
2021/05/18 11:30:42;;;;;;;;;1.50;1.50;;;;;;;;5055251;28;9451;-72
2021/05/18 11:33:10;;;;;;;;;2.50;2.50;;;;;;;;5056130;28;8876;-73
2021/05/18 11:35:37;;;;;;;;;3.00;3.00;;;;;;;;5059142;28;8886;-72
2021/05/18 11:38:10;;;;;;;;;3.00;3.00;;;;;;;;5057955;28;8999;-72
2021/05/18 11:40:42;;;;;;;;;3.00;2.00;;;;;;;;5059312;28;8852;-73
2021/05/18 11:43:21;;;;;;;;;2.00;2.00;;;;;;;;5059157;28;8933;-72
2021/05/18 11:45:51;;;;;;;;;2.00;2.00;;;;;;;;5057837;28;8856;-73
2021/05/18 11:48:19;;;;;;;;;2.75;2.75;;;;;;;;5056651;28;9630;-73
2021/05/18 11:50:47;;;;;;;;;3.25;2.00;;;;;;;;5042788;28;8864;-73
2021/05/18 11:53:32;;;;;;;;;2.00;2.00;;;;;;;;5057077;28;8860;-73
2021/05/18 11:55:59;;;;;;;;;2.00;2.00;;;;;;;;5057676;28;8933;-74
2021/05/18 11:58:27;;;;;;;;;1.00;1.00;;;;;;;;5058646;28;8864;-74
2021/05/18 12:01:06;;;;;;;;;5.00;3.25;;;;;;;;5055347;28;9660;-73
2021/05/18 12:03:34;;;;;;;;;1.50;1.50;;;;;;;;5054410;28;8874;-73
2021/05/18 12:06:02;;;;;;;;;2.00;2.00;;;;;;;;5058338;28;8856;-73
2021/05/18 12:08:31;;;;;;;;;1.75;1.75;;;;;;;;5062643;28;8891;-74
2021/05/18 12:11:14;;;;;;;;;1.00;1.00;;;;;;;;5058315;28;9650;-73
2021/05/18 12:13:41;;;;;;;;;2.00;2.00;;;;;;;;5055299;28;8868;-73
2021/05/18 12:16:11;;;;;;;;;2.25;2.25;;;;;;;;5058377;28;8887;-74
2021/05/18 12:18:40;;;;;;;;;2.00;2.00;;;;;;;;5056805;28;8885;-73
2021/05/18 12:21:12;;;;;;;;;2.00;2.00;;;;;;;;5057697;28;8983;-76
2021/05/18 12:23:39;;;;;;;;;1.00;1.00;;;;;;;;5057106;28;8860;-74
2021/05/18 12:26:14;;;;;;;;;2.50;2.00;;;;;;;;5056374;28;8853;-74
2021/05/18 12:28:53;;;;;;;;;1.00;1.00;;;;;;;;5053471;28;9669;-75
2021/05/18 12:31:29;;;;;;;;;1.50;1.50;;;;;;;;5052124;28;8886;-74
2021/05/18 12:33:56;;;;;;;;;3.00;1.25;;;;;;;;5059337;28;8848;-75
2021/05/18 12:36:23;;;;;;;;;1.50;1.00;;;;;;;;5057145;28;9285;-74
2021/05/18 12:39:07;;;;;;;;;1.00;1.00;;;;;;;;5060583;28;8884;-73
2021/05/18 12:41:50;;;;;;;;;1.50;1.00;;;;;;;;5060701;28;8864;-75
2021/05/18 12:44:18;;;;;;;;;1.00;1.00;;;;;;;;5055235;28;8965;-74
2021/05/18 12:47:01;;;;;;;;;3.50;3.00;;;;;;;;5054309;28;8826;-71
2021/05/18 12:49:30;;;;;;;;;2.25;2.25;;;;;;;;5055957;28;8892;-74
2021/05/18 12:52:13;;;;;;;;;1.75;1.75;;;;;;;;5057895;28;8876;-72
2021/05/18 12:54:45;;;;;;;;;4.50;2.00;;;;;;;;5059666;28;8945;-72
2021/05/18 12:57:15;;;;;;;;;1.00;1.00;;;;;;;;5060047;28;8895;-72
2021/05/18 13:00:04;;;;;;;;;3.00;3.00;;;;;;;;5063241;28;8860;-72
2021/05/18 13:02:35;;;;;;;;;3.25;3.25;;;;;;;;5061364;28;8812;-72
2021/05/18 13:05:18;;;;;;;;;2.00;2.00;;;;;;;;5064003;28;8864;-73
2021/05/18 13:08:00;;;;;;;;;4.00;4.00;;;;;;;;5060696;28;8864;-71
2021/05/18 13:10:37;;;;;;;;;3.75;3.75;;;;;;;;5063618;28;9253;-71
2021/05/18 13:13:04;;;;;;;;;4.00;4.00;;;;;;;;5064205;28;8852;-72
2021/05/18 13:15:32;;;;;;;;;2.25;2.25;;;;;;;;5063601;28;8898;-71
2021/05/18 13:18:01;;;;;;;;;2.00;2.00;;;;;;;;5065379;28;8976;-71
2021/05/18 13:20:47;;;;;;;;;1.00;1.00;;;;;;;;5046311;28;8956;-72
2021/05/18 13:23:21;;;;;;;;;3.00;3.00;;;;;;;;5056952;28;8880;-73
2021/05/18 13:28:34;;;;;;;;;4.25;4.25;;;;;;;;5063619;28;9404;-71
2021/05/18 13:31:02;;;;;;;;;2.00;1.00;;;;;;;;5063080;28;8846;-72
2021/05/18 13:33:30;;;;;;;;;2.00;2.00;;;;;;;;5063658;28;8892;-71
2021/05/18 13:35:56;;;;;;;;;3.00;2.50;;;;;;;;5065280;28;8925;-72
2021/05/18 13:38:24;;;;;;;;;2.25;2.25;;;;;;;;5064971;28;8860;-73
2021/05/18 13:40:51;;;;;;;;;1.00;1.00;;;;;;;;5063624;28;8872;-72
2021/05/18 13:43:18;;;;;;;;;2.00;2.00;;;;;;;;5064810;28;8856;-71
2021/05/18 13:45:45;;;;;;;;;1.25;1.25;;;;;;;;5060279;28;8872;-73
2021/05/18 13:48:12;;;;;;;;;1.00;1.00;;;;;;;;5046357;28;8908;-71
2021/05/18 13:50:41;;;;;;;;;2.75;2.75;;;;;;;;5063636;28;8856;-72
2021/05/18 13:53:08;;;;;;;;;1.00;1.00;;;;;;;;5064971;28;8898;-72
2021/05/18 13:55:35;;;;;;;;;2.00;2.00;;;;;;;;5064159;28;8856;-72
2021/05/18 13:58:02;;;;;;;;;1.00;1.00;;;;;;;;5064436;28;8876;-72
2021/05/18 14:00:29;;;;;;;;;0.00;0.00;;;;;;;;5064306;28;8828;-71
2021/05/18 14:02:57;;;;;;;;;1.75;1.75;;;;;;;;5064041;28;8926;-71
2021/05/18 14:05:24;;;;;;;;;1.00;1.00;;;;;;;;5063505;28;8876;-72
2021/05/18 14:08:29;;;;;;;;;0.75;0.75;;;;;;;;5063223;28;8868;-71
2021/05/18 14:10:59;;;;;;;;;1.75;1.75;;;;;;;;5063191;28;8880;-74
2021/05/18 14:13:32;;;;;;;;;0.00;0.00;;;;;;;;5046032;28;8894;-72
2021/05/18 14:15:59;;;;;;;;;1.00;1.00;;;;;;;;5063071;28;8890;-72
2021/05/18 14:18:27;;;;;;;;;0.00;0.00;;;;;;;;5063747;28;8860;-71
2021/05/18 14:20:54;;;;;;;;;1.00;1.00;;;;;;;;5044798;28;9698;-73
2021/05/18 14:23:24;;;;;;;;;0.75;0.25;;;;;;;;5062286;28;8852;-71
2021/05/18 14:25:51;;;;;;;;;0.00;0.00;;;;;;;;5063302;28;8947;-74
2021/05/18 14:28:18;;;;;;;;;0.25;0.25;;;;;;;;5064001;28;8880;-71
2021/05/18 14:30:46;;;;;;;;;1.00;1.00;;;;;;;;5063151;28;8895;-71
2021/05/18 14:33:13;;;;;;;;;0.00;0.00;;;;;;;;5063299;28;8904;-71
2021/05/18 14:35:40;;;;;;;;;0.00;0.00;;;;;;;;5064299;28;8949;-71
2021/05/18 14:38:11;;;;;;;;;0.75;0.75;;;;;;;;5062956;28;8888;-71
2021/05/18 14:46:12;;;;;;;;;0.25;0.25;;;;;;;;5062625;28;8840;-71
2021/05/18 14:57:07;;;;;;;;;0.00;0.00;;;;;;;;5061212;28;8954;-71
2021/05/18 14:59:34;;;;;;;;;0.00;0.00;;;;;;;;5062187;28;8983;-72
2021/05/18 15:02:01;;;;;;;;;0.00;0.00;;;;;;;;5045490;28;8905;-71
2021/05/18 15:04:28;;;;;;;;;0.00;0.00;;;;;;;;5062302;28;8872;-72
2021/05/18 15:06:55;;;;;;;;;0.00;0.00;;;;;;;;5045901;28;8963;-72
2021/05/18 15:09:22;;;;;;;;;0.00;0.00;;;;;;;;5062107;28;8864;-71
2021/05/18 15:11:48;;;;;;;;;0.00;0.00;;;;;;;;5063181;28;8892;-71
2021/05/18 15:14:16;;;;;;;;;1.60;0.00;;;;;;;;5062443;28;8989;-70
2021/05/18 15:16:43;;;;;;;;;0.00;0.00;;;;;;;;5062251;28;8860;-71
2021/05/18 15:19:12;;;;;;;;;1.00;1.00;;;;;;;;5062328;28;8914;-71
2021/05/18 15:21:39;;;;;;;;;1.40;0.80;;;;;;;;5061172;28;8868;-72
2021/05/18 15:24:07;;;;;;;;;0.00;0.00;;;;;;;;5058309;28;9719;-74
2021/05/18 15:26:34;;;;;;;;;0.00;0.00;;;;;;;;5061302;28;8848;-71
2021/05/18 15:29:01;;;;;;;;;0.00;0.00;;;;;;;;5063298;28;8890;-71
2021/05/18 15:31:29;;;;;;;;;0.80;0.00;;;;;;;;5061295;28;8928;-72
2021/05/18 15:33:56;;;;;;;;;0.80;0.80;;;;;;;;5048600;28;8875;-71
2021/05/18 15:36:23;;;;;;;;;0.40;0.40;;;;;;;;5076853;28;8924;-72
2021/05/18 15:38:50;;;;;;;;;1.00;1.00;;;;;;;;5062307;28;8884;-70
2021/05/18 15:41:17;;;;;;;;;2.00;0.00;;;;;;;;5062859;28;8896;-71
2021/05/18 15:43:45;;;;;;;;;0.00;0.00;;;;;;;;5061934;28;8890;-71
2021/05/18 15:46:13;;;;;;;;;1.00;1.00;;;;;;;;5055704;28;8864;-71
2021/05/18 15:48:41;;;;;;;;;0.20;0.20;;;;;;;;5052156;28;8876;-72
2021/05/18 15:51:07;;;;;;;;;1.20;1.00;;;;;;;;5053923;28;8891;-73
2021/05/18 15:53:35;;;;;;;;;1.00;1.00;;;;;;;;5061955;28;8860;-73
2021/05/18 15:56:04;;;;;;;;;0.00;0.00;;;;;;;;5063107;28;8868;-72
2021/05/18 15:58:31;;;;;;;;;1.00;1.00;;;;;;;;5053194;28;8924;-72
2021/05/18 16:00:58;;;;;;;;;1.40;1.00;;;;;;;;5060168;28;8824;-72
2021/05/18 16:03:25;;;;;;;;;1.00;1.00;;;;;;;;5061114;28;8862;-73
2021/05/18 16:05:53;;;;;;;;;0.00;0.00;;;;;;;;5060606;28;9018;-72
2021/05/18 16:11:06;;;;;;;;;0.00;0.00;;;;;;;;5060362;28;8833;-73
2021/05/18 16:13:34;;;;;;;;;1.00;1.00;;;;;;;;5052551;28;8887;-72
2021/05/18 16:16:04;;;;;;;;;0.00;0.00;;;;;;;;5056198;28;8871;-71
2021/05/18 16:18:32;;;;;;;;;0.25;0.25;;;;;;;;5056952;28;8859;-71
2021/05/18 16:21:00;;;;;;;;;1.00;1.00;;;;;;;;5035340;28;8880;-71
2021/05/18 16:23:28;;;;;;;;;0.00;0.00;;;;;;;;5054785;28;8909;-72
2021/05/18 16:25:55;;;;;;;;;1.50;1.50;;;;;;;;5055475;28;9664;-72
2021/05/18 16:28:23;;;;;;;;;1.00;1.00;;;;;;;;5056577;28;8868;-76
2021/05/18 16:30:50;;;;;;;;;0.00;0.00;;;;;;;;5051254;28;8817;-73
2021/05/18 16:33:17;;;;;;;;;0.00;0.00;;;;;;;;5054957;28;8892;-72
2021/05/18 16:35:45;;;;;;;;;1.00;1.00;;;;;;;;5055915;28;8864;-72
2021/05/18 16:38:13;;;;;;;;;1.00;1.00;;;;;;;;5055269;28;8961;-71
2021/05/18 16:40:40;;;;;;;;;1.00;1.00;;;;;;;;5057933;28;8840;-71
2021/05/18 16:43:07;;;;;;;;;0.75;0.75;;;;;;;;5040682;28;8963;-72
2021/05/18 16:45:35;;;;;;;;;0.25;0.25;;;;;;;;5055788;28;8916;-72
2021/05/18 16:48:02;;;;;;;;;1.00;0.00;;;;;;;;5059112;28;8886;-73
2021/05/18 16:50:29;;;;;;;;;0.00;0.00;;;;;;;;5045895;28;8889;-74
2021/05/18 16:52:56;;;;;;;;;0.00;0.00;;;;;;;;5058837;28;8894;-71
2021/05/18 16:55:24;;;;;;;;;0.00;0.00;;;;;;;;5038509;28;8868;-72
2021/05/18 16:57:51;;;;;;;;;0.00;0.00;;;;;;;;5063409;28;8868;-72
2021/05/18 17:00:18;;;;;;;;;0.00;0.00;;;;;;;;5060186;28;8868;-72
2021/05/18 17:02:45;;;;;;;;;2.00;0.00;;;;;;;;5056207;28;8849;-70
2021/05/18 17:05:12;;;;;;;;;0.00;0.00;;;;;;;;5063505;28;8894;-71
2021/05/18 17:07:39;;;;;;;;;0.00;0.00;;;;;;;;5060871;28;8990;-70
2021/05/18 17:10:07;;;;;;;;;0.00;0.00;;;;;;;;5054415;28;8860;-71
2021/05/18 17:12:36;;;;;;;;;0.20;0.20;;;;;;;;5049593;28;8875;-71
2021/05/18 17:15:04;;;;;;;;;0.00;0.00;;;;;;;;5059988;28;8896;-70
2021/05/18 17:17:31;;;;;;;;;0.40;0.40;;;;;;;;5056737;28;8895;-70
2021/05/18 17:19:58;;;;;;;;;0.00;0.00;;;;;;;;5058799;28;8868;-71
2021/05/18 17:22:26;;;;;;;;;0.60;0.60;;;;;;;;5068345;28;8864;-71
2021/05/18 17:24:53;;;;;;;;;0.80;0.80;;;;;;;;5056311;28;8868;-71
2021/05/18 17:27:20;;;;;;;;;1.00;1.00;;;;;;;;5051473;28;8850;-71
2021/05/18 17:29:48;;;;;;;;;1.20;1.20;;;;;;;;5060101;28;8868;-71
2021/05/18 17:32:15;;;;;;;;;3.00;2.00;;;;;;;;5053563;28;8809;-73
2021/05/18 17:34:42;;;;;;;;;0.60;0.00;;;;;;;;5061063;28;8849;-72
2021/05/18 17:37:08;;;;;;;;;0.20;0.20;;;;;;;;5062682;28;8907;-71
2021/05/18 17:39:37;;;;;;;;;1.00;0.00;;;;;;;;5062527;28;8949;-72
2021/05/18 17:42:05;;;;;;;;;0.00;0.00;;;;;;;;5062800;28;8852;-73
2021/05/18 17:44:32;;;;;;;;;1.40;0.20;;;;;;;;5061558;28;8876;-73
2021/05/18 17:47:00;;;;;;;;;0.00;0.00;;;;;;;;5063710;28;8845;-72
2021/05/18 17:49:27;;;;;;;;;0.00;0.00;;;;;;;;5060657;28;8888;-72
2021/05/18 17:51:54;;;;;;;;;0.00;0.00;;;;;;;;5060558;28;8860;-70
2021/05/18 17:54:22;;;;;;;;;1.00;1.00;;;;;;;;5060810;28;8852;-71
2021/05/18 17:56:49;;;;;;;;;1.00;0.00;;;;;;;;5062646;28;8848;-70
2021/05/18 17:59:16;;;;;;;;;0.00;0.00;;;;;;;;5061845;28;8978;-72
2021/05/18 18:01:43;;;;;;;;;1.40;1.00;;;;;;;;5060819;28;8809;-70
2021/05/18 18:04:12;;;;;;;;;0.60;0.60;;;;;;;;5061434;28;8844;-73
2021/05/18 18:06:39;;;;;;;;;1.00;1.00;;;;;;;;5059677;28;8906;-71
2021/05/18 18:09:07;;;;;;;;;1.00;1.00;;;;;;;;5057107;28;8860;-70
2021/05/18 18:11:36;;;;;;;;;1.00;1.00;;;;;;;;5060731;28;8865;-73
2021/05/18 18:14:03;;;;;;;;;0.80;0.80;;;;;;;;5061926;28;8884;-70
2021/05/18 18:16:30;;;;;;;;;1.00;1.00;;;;;;;;5059576;28;8852;-72
2021/05/18 18:18:57;;;;;;;;;0.00;0.00;;;;;;;;5052536;28;8984;-71
2021/05/18 18:21:25;;;;;;;;;0.80;0.80;;;;;;;;5056477;28;8847;-71
2021/05/18 18:23:53;;;;;;;;;0.00;0.00;;;;;;;;5034222;28;8884;-71
2021/05/18 18:26:21;;;;;;;;;0.60;0.60;;;;;;;;5050309;28;8854;-71
2021/05/18 18:28:48;;;;;;;;;0.40;0.40;;;;;;;;5039494;28;8872;-71
2021/05/18 18:31:15;;;;;;;;;0.00;0.00;;;;;;;;5055642;28;8814;-72
2021/05/18 18:33:42;;;;;;;;;0.00;0.00;;;;;;;;5053969;28;8982;-72
2021/05/18 18:36:09;;;;;;;;;0.00;0.00;;;;;;;;5061363;28;8904;-74
2021/05/18 18:38:38;;;;;;;;;2.75;1.00;;;;;;;;5061461;28;8960;-72
2021/05/18 18:41:05;;;;;;;;;0.00;0.00;;;;;;;;5050214;28;8890;-73
2021/05/18 18:43:32;;;;;;;;;0.00;0.00;;;;;;;;5057494;28;8955;-73
2021/05/18 18:45:59;;;;;;;;;0.50;0.50;;;;;;;;5059956;28;8868;-73
2021/05/18 18:48:26;;;;;;;;;0.00;0.00;;;;;;;;5045558;28;8891;-73
2021/05/18 18:50:57;;;;;;;;;1.75;0.00;;;;;;;;5058006;28;8840;-74
2021/05/18 18:56:07;;;;;;;;;0.00;0.00;;;;;;;;5060388;28;8921;-76
2021/05/18 18:58:34;;;;;;;;;0.00;0.00;;;;;;;;5057106;28;8848;-77
2021/05/18 19:01:01;;;;;;;;;0.00;0.00;;;;;;;;5057877;28;8844;-79
2021/05/18 19:03:30;;;;;;;;;0.50;0.00;;;;;;;;5058584;28;8880;-77
2021/05/18 19:06:04;;;;;;;;;0.00;0.00;;;;;;;;5064574;28;9762;-79
2021/05/18 19:08:46;;;;;;;;;0.00;0.00;;;;;;;;5065261;28;8860;-79
2021/05/18 19:11:31;;;;;;;;;1.00;0.25;;;;;;;;5059903;28;8951;-80
2021/05/18 19:13:58;;;;;;;;;0.75;0.75;;;;;;;;5047695;28;8882;-77
2021/05/18 19:16:25;;;;;;;;;0.50;0.50;;;;;;;;5067123;28;8864;-79
2021/05/18 19:18:53;;;;;;;;;0.50;0.50;;;;;;;;5067079;28;8879;-80
2021/05/18 19:21:21;;;;;;;;;1.00;1.00;;;;;;;;5070447;28;9485;-81
2021/05/18 19:23:47;;;;;;;;;0.25;0.25;;;;;;;;5063290;28;8872;-79
2021/05/18 19:26:15;;;;;;;;;0.00;0.00;;;;;;;;5069583;28;8900;-79
2021/05/18 19:28:43;;;;;;;;;1.00;1.00;;;;;;;;5071259;28;8900;-80
2021/05/18 19:31:11;;;;;;;;;0.00;0.00;;;;;;;;5066360;28;8829;-78
2021/05/18 19:33:39;;;;;;;;;0.25;0.25;;;;;;;;5048452;28;8871;-81
2021/05/18 19:41:39;;;;;;;;;0.75;0.75;;;;;;;;5069724;28;9612;-80
2021/05/18 19:44:18;;;;;;;;;0.00;0.00;;;;;;;;5061551;28;8869;-78
2021/05/18 19:49:37;;;;;;;;;1.00;1.00;;;;;;;;5046235;28;9062;-82
2021/05/18 19:52:05;;;;;;;;;0.00;0.00;;;;;;;;5060760;28;8932;-79